createdAt,value
2018-06-16T00:00:20.129Z,69.44
2018-06-16T00:02:49.695Z,68.96
2018-06-16T00:05:19.106Z,68.97
2018-06-16T00:07:48.454Z,69.21
2018-06-16T00:10:17.811Z,69.41
2018-06-16T00:12:47.136Z,69.19
2018-06-16T00:15:16.652Z,69.35
2018-06-16T00:17:46.125Z,69.02
2018-06-16T00:20:16.113Z,69.33
2018-06-16T00:22:45.522Z,68.99
2018-06-16T00:25:14.990Z,69.21
2018-06-16T00:27:44.987Z,69.48
2018-06-16T00:30:14.569Z,69.30
2018-06-16T00:32:43.914Z,69.66
2018-06-16T00:35:13.655Z,69.35
2018-06-16T00:37:43.484Z,69.28
2018-06-16T00:40:12.822Z,69.55
2018-06-16T00:42:42.233Z,69.72
2018-06-16T00:45:11.652Z,69.35
2018-06-16T00:47:41.000Z,69.58
2018-06-16T00:50:10.309Z,69.64
2018-06-16T00:52:39.662Z,69.50
2018-06-16T00:55:09.525Z,69.36
2018-06-16T00:57:51.976Z,69.54
2018-06-16T01:00:21.789Z,69.68
2018-06-16T01:02:51.150Z,69.72
2018-06-16T01:05:20.472Z,69.85
2018-06-16T01:07:50.444Z,69.61
2018-06-16T01:10:19.913Z,69.48
2018-06-16T01:12:49.457Z,69.90
2018-06-16T01:15:18.802Z,69.65
2018-06-16T01:17:48.209Z,69.96
2018-06-16T01:20:17.675Z,69.75
2018-06-16T01:22:47.028Z,69.71
2018-06-16T01:25:16.485Z,69.68
2018-06-16T01:27:45.881Z,69.85
2018-06-16T01:30:15.184Z,69.50
2018-06-16T01:32:44.612Z,69.84
2018-06-16T01:35:13.919Z,69.57
2018-06-16T01:37:43.772Z,69.92
2018-06-16T01:40:13.280Z,69.80
2018-06-16T01:42:42.648Z,69.86
2018-06-16T01:45:12.744Z,69.74
2018-06-16T01:47:42.084Z,69.56
2018-06-16T01:50:11.470Z,69.58
2018-06-16T01:52:41.637Z,69.75
2018-06-16T01:55:11.029Z,69.81
2018-06-16T01:57:40.440Z,69.92
2018-06-16T02:00:09.883Z,69.90
2018-06-16T02:02:39.365Z,69.98
2018-06-16T02:05:08.581Z,69.70
2018-06-16T02:07:38.132Z,69.83
2018-06-16T02:10:07.530Z,69.96
2018-06-16T02:12:36.965Z,69.80
2018-06-16T02:15:06.676Z,70.21
2018-06-16T02:17:36.093Z,69.83
2018-06-16T02:20:05.926Z,70.01
2018-06-16T02:22:36.120Z,70.09
2018-06-16T02:25:05.495Z,69.96
2018-06-16T02:27:35.199Z,70.02
2018-06-16T02:30:04.557Z,70.16
2018-06-16T02:32:34.035Z,70.32
2018-06-16T02:35:03.800Z,70.33
2018-06-16T02:37:33.421Z,70.26
2018-06-16T02:40:03.012Z,70.31
2018-06-16T02:42:32.448Z,70.57
2018-06-16T02:45:02.026Z,70.20
2018-06-16T02:47:31.380Z,70.21
2018-06-16T02:50:00.906Z,70.27
2018-06-16T02:52:30.347Z,70.42
2018-06-16T02:54:59.893Z,70.37
2018-06-16T02:57:29.741Z,70.51
2018-06-16T02:59:59.222Z,70.64
2018-06-16T03:02:28.677Z,70.76
2018-06-16T03:04:58.173Z,70.46
2018-06-16T03:07:28.223Z,70.52
2018-06-16T03:09:57.797Z,70.81
2018-06-16T03:12:27.393Z,70.82
2018-06-16T03:14:56.901Z,70.81
2018-06-16T03:17:26.372Z,71.00
2018-06-16T03:19:57.273Z,70.92
2018-06-16T03:22:27.213Z,70.89
2018-06-16T03:24:57.125Z,71.08
2018-06-16T03:27:26.677Z,71.07
2018-06-16T03:29:56.286Z,71.08
2018-06-16T03:32:25.701Z,70.66
2018-06-16T03:34:55.228Z,70.85
2018-06-16T03:37:24.723Z,70.80
2018-06-16T03:39:54.338Z,70.96
2018-06-16T03:42:23.800Z,70.90
2018-06-16T03:44:53.713Z,71.09
2018-06-16T03:47:23.157Z,70.82
2018-06-16T03:49:52.827Z,70.84
2018-06-16T03:52:22.924Z,70.95
2018-06-16T03:54:52.746Z,70.96
2018-06-16T03:57:22.290Z,70.65
2018-06-16T03:59:51.863Z,70.79
2018-06-16T04:02:21.662Z,70.84
2018-06-16T04:04:51.400Z,70.94
2018-06-16T04:07:21.156Z,70.69
2018-06-16T04:09:51.037Z,70.96
2018-06-16T04:12:20.728Z,70.81
2018-06-16T04:14:50.100Z,70.91
2018-06-16T04:17:20.753Z,70.94
2018-06-16T04:19:52.426Z,70.91
2018-06-16T04:22:22.352Z,70.86
2018-06-16T04:24:51.935Z,70.84
2018-06-16T04:27:21.440Z,70.86
2018-06-16T04:29:50.797Z,70.84
2018-06-16T04:32:20.257Z,70.57
2018-06-16T04:34:49.748Z,70.78
2018-06-16T04:37:19.270Z,70.81
2018-06-16T04:39:48.961Z,70.82
2018-06-16T04:42:18.288Z,70.97
2018-06-16T04:44:47.724Z,70.80
2018-06-16T04:47:17.895Z,70.83
2018-06-16T04:49:47.413Z,70.53
2018-06-16T04:52:16.981Z,70.80
2018-06-16T04:54:46.357Z,70.50
2018-06-16T04:57:15.837Z,70.64
2018-06-16T04:59:45.468Z,70.95
2018-06-16T05:02:15.365Z,70.56
2018-06-16T05:04:44.922Z,70.71
2018-06-16T05:07:14.289Z,70.41
2018-06-16T05:09:44.096Z,70.83
2018-06-16T05:12:13.537Z,70.42
2018-06-16T05:14:43.079Z,70.48
2018-06-16T05:17:12.959Z,70.61
2018-06-16T05:19:42.834Z,70.32
2018-06-16T05:22:12.431Z,70.28
2018-06-16T05:24:42.191Z,70.56
2018-06-16T05:27:11.685Z,70.70
2018-06-16T05:29:41.304Z,70.43
2018-06-16T05:32:10.899Z,70.23
2018-06-16T05:34:41.479Z,70.60
2018-06-16T05:37:11.272Z,70.39
2018-06-16T05:39:40.741Z,70.42
2018-06-16T05:42:10.180Z,70.38
2018-06-16T05:44:39.592Z,70.21
2018-06-16T05:47:09.232Z,70.21
2018-06-16T05:49:39.231Z,70.44
2018-06-16T05:52:08.752Z,70.38
2018-06-16T05:54:38.133Z,70.42
2018-06-16T05:57:07.764Z,70.09
2018-06-16T05:59:37.172Z,70.09
2018-06-16T06:02:06.656Z,70.17
2018-06-16T06:04:36.726Z,70.14
2018-06-16T06:07:06.312Z,69.97
2018-06-16T06:14:14.757Z,70.06
2018-06-16T06:16:44.325Z,70.06
2018-06-16T06:19:16.153Z,70.04
2018-06-16T06:21:46.280Z,70.02
2018-06-16T06:24:16.108Z,69.87
2018-06-16T06:26:45.674Z,69.48
2018-06-16T06:29:15.392Z,69.74
2018-06-16T06:31:45.216Z,69.75
2018-06-16T06:34:14.765Z,69.27
2018-06-16T06:36:44.151Z,69.50
2018-06-16T06:39:13.859Z,69.39
2018-06-16T06:41:43.996Z,69.18
2018-06-16T06:44:13.490Z,69.48
2018-06-16T06:46:43.051Z,69.47
2018-06-16T06:49:12.597Z,69.81
2018-06-16T06:51:42.726Z,69.27
2018-06-16T06:54:12.467Z,69.64
2018-06-16T06:56:41.845Z,69.80
2018-06-16T06:59:11.215Z,69.26
2018-06-16T07:01:41.160Z,69.49
2018-06-16T07:04:10.664Z,70.07
2018-06-16T07:06:40.243Z,69.88
2018-06-16T07:09:11.135Z,69.90
2018-06-16T07:11:40.843Z,70.24
2018-06-16T07:14:10.602Z,70.24
2018-06-16T07:16:39.993Z,70.52
2018-06-16T07:19:10.568Z,71.43
2018-06-16T07:21:40.535Z,71.16
2018-06-16T07:24:09.977Z,70.85
2018-06-16T07:26:39.904Z,71.08
2018-06-16T07:29:09.339Z,71.93
2018-06-16T07:31:38.838Z,72.55
2018-06-16T07:34:08.597Z,70.62
2018-06-16T07:36:38.032Z,71.18
2018-06-16T07:39:09.172Z,70.42
2018-06-16T07:41:38.690Z,70.31
2018-06-16T07:44:08.321Z,70.96
2018-06-16T07:46:37.779Z,71.00
2018-06-16T07:49:07.414Z,70.97
2018-06-16T07:51:37.133Z,70.28
2018-06-16T07:54:06.473Z,70.31
2018-06-16T07:56:36.379Z,70.07
2018-06-16T07:59:06.928Z,69.50
2018-06-16T08:01:36.473Z,69.17
2018-06-16T08:04:05.948Z,68.45
2018-06-16T08:06:35.414Z,68.43
2018-06-16T08:09:11.675Z,67.08
2018-06-16T08:11:41.652Z,67.64
2018-06-16T08:14:11.582Z,67.36
2018-06-16T08:16:41.414Z,67.35
2018-06-16T08:19:11.893Z,66.84
2018-06-16T08:21:41.453Z,66.79
2018-06-16T08:24:11.851Z,65.63
2018-06-16T08:26:42.107Z,66.30
2018-06-16T08:29:12.045Z,66.64
2018-06-16T08:31:41.505Z,66.39
2018-06-16T08:34:11.596Z,66.62
2018-06-16T08:36:41.172Z,66.49
2018-06-16T08:39:12.526Z,66.28
2018-06-16T08:41:42.259Z,66.31
2018-06-16T08:44:12.284Z,66.10
2018-06-16T08:46:42.968Z,66.01
2018-06-16T08:49:13.004Z,65.57
2018-06-16T08:51:43.477Z,65.41
2018-06-16T08:54:14.583Z,64.96
2018-06-16T08:56:44.445Z,65.19
2018-06-16T08:59:13.974Z,64.96
2018-06-16T09:01:43.223Z,64.80
2018-06-16T09:04:12.675Z,64.92
2018-06-16T09:06:42.236Z,64.73
2018-06-16T09:09:11.992Z,64.51
2018-06-16T09:11:41.710Z,64.03
2018-06-16T09:14:11.934Z,63.58
2018-06-16T09:16:41.205Z,63.42
2018-06-16T09:19:10.741Z,63.42
2018-06-16T09:21:40.366Z,63.05
2018-06-16T09:24:10.662Z,62.60
2018-06-16T09:26:40.845Z,63.08
2018-06-16T09:29:10.993Z,62.79
2018-06-16T09:31:40.375Z,62.09
2018-06-16T09:34:09.702Z,62.14
2018-06-16T09:36:39.121Z,62.10
2018-06-16T09:39:10.877Z,62.17
2018-06-16T09:41:41.180Z,62.73
2018-06-16T09:44:12.572Z,62.28
2018-06-16T09:46:42.937Z,62.07
2018-06-16T09:49:12.756Z,62.18
2018-06-16T09:51:43.164Z,61.19
2018-06-16T09:54:12.796Z,61.96
2018-06-16T09:56:42.674Z,62.37
2018-06-16T09:59:13.183Z,63.44
2018-06-16T10:01:42.944Z,63.60
2018-06-16T10:04:13.188Z,63.62
2018-06-16T10:06:43.020Z,63.87
2018-06-16T10:09:12.568Z,63.92
2018-06-16T10:11:42.116Z,64.22
2018-06-16T10:14:11.604Z,64.35
2018-06-16T10:16:42.252Z,64.38
2018-06-16T10:19:11.683Z,64.21
2018-06-16T10:21:41.055Z,64.38
2018-06-16T10:24:10.885Z,64.37
2018-06-16T10:26:40.458Z,64.63
2018-06-16T10:29:09.995Z,64.61
2018-06-16T10:31:39.253Z,64.68
2018-06-16T10:34:08.908Z,64.95
2018-06-16T10:36:39.224Z,64.90
2018-06-16T10:39:09.841Z,65.19
2018-06-16T10:41:43.682Z,64.90
2018-06-16T10:44:12.984Z,65.04
2018-06-16T10:46:43.025Z,65.03
2018-06-16T10:49:13.144Z,64.82
2018-06-16T10:51:43.241Z,64.71
2018-06-16T10:54:12.870Z,64.54
2018-06-16T10:56:42.539Z,64.52
2018-06-16T10:59:12.157Z,64.34
2018-06-16T11:01:42.052Z,64.53
2018-06-16T11:04:11.878Z,64.56
2018-06-16T11:06:41.441Z,64.43
2018-06-16T11:09:11.514Z,64.42
2018-06-16T11:11:41.185Z,64.62
2018-06-16T11:14:11.297Z,64.75
2018-06-16T11:16:40.827Z,64.85
2018-06-16T11:19:11.286Z,65.23
2018-06-16T11:21:40.668Z,65.10
2018-06-16T11:24:10.824Z,64.89
2018-06-16T11:26:41.659Z,65.11
2018-06-16T11:29:15.267Z,65.20
2018-06-16T11:31:45.125Z,65.26
2018-06-16T11:34:15.597Z,64.93
2018-06-16T11:36:45.679Z,64.69
2018-06-16T11:39:16.107Z,64.93
2018-06-16T11:41:45.800Z,64.61
2018-06-16T11:44:29.502Z,64.60
2018-06-16T11:47:04.324Z,64.74
2018-06-16T11:49:34.553Z,64.94
2018-06-16T11:52:03.964Z,65.06
2018-06-16T11:54:34.243Z,63.66
2018-06-16T11:57:03.681Z,64.03
2018-06-16T11:59:35.226Z,64.60
2018-06-16T12:02:04.870Z,64.71
2018-06-16T12:04:34.487Z,64.94
2018-06-16T12:07:03.990Z,64.99
2018-06-16T12:09:33.372Z,64.95
2018-06-16T12:12:02.784Z,65.00
2018-06-16T12:14:33.346Z,64.83
2018-06-16T12:17:03.430Z,65.63
2018-06-16T12:19:33.108Z,65.44
2018-06-16T12:22:02.873Z,65.13
2018-06-16T12:24:36.211Z,65.04
2018-06-16T12:27:07.003Z,64.93
2018-06-16T12:29:38.029Z,64.94
2018-06-16T12:32:07.884Z,65.07
2018-06-16T12:34:38.028Z,64.86
2018-06-16T12:37:08.765Z,64.60
2018-06-16T12:39:38.271Z,64.00
2018-06-16T12:42:25.989Z,63.70
2018-06-16T12:44:55.775Z,63.26
2018-06-16T12:47:25.290Z,62.88
2018-06-16T12:49:55.197Z,63.02
2018-06-16T12:52:24.698Z,63.43
2018-06-16T12:54:54.505Z,63.92
2018-06-16T12:57:24.272Z,63.44
2018-06-16T12:59:54.128Z,63.82
2018-06-16T13:02:23.873Z,63.89
2018-06-16T13:04:53.329Z,63.86
2018-06-16T13:07:22.734Z,64.22
2018-06-16T13:09:52.344Z,63.90
2018-06-16T13:12:23.441Z,64.50
2018-06-16T13:14:52.937Z,63.96
2018-06-16T13:17:22.370Z,63.89
2018-06-16T13:19:51.862Z,63.64
2018-06-16T13:22:22.300Z,64.24
2018-06-16T13:24:51.823Z,63.82
2018-06-16T13:27:21.268Z,63.84
2018-06-16T13:29:50.869Z,63.83
2018-06-16T13:32:20.545Z,63.33
2018-06-16T13:34:50.211Z,63.11
2018-06-16T13:37:19.711Z,63.77
2018-06-16T13:39:49.619Z,63.34
2018-06-16T13:42:18.994Z,63.45
2018-06-16T13:44:48.519Z,63.61
2018-06-16T13:47:18.607Z,63.89
2018-06-16T13:49:52.231Z,63.68
2018-06-16T13:52:22.426Z,64.05
2018-06-16T13:54:54.848Z,64.59
2018-06-16T13:57:24.455Z,64.40
2018-06-16T13:59:55.202Z,64.84
2018-06-16T14:02:24.700Z,64.73
2018-06-16T14:04:55.056Z,64.85
2018-06-16T14:07:24.565Z,65.12
2018-06-16T14:09:54.607Z,65.14
2018-06-16T14:12:25.017Z,65.18
2018-06-16T14:14:54.974Z,65.31
2018-06-16T14:17:24.461Z,64.51
2018-06-16T14:19:54.735Z,63.81
2018-06-16T14:22:24.247Z,63.61
2018-06-16T14:24:54.154Z,63.68
2018-06-16T14:27:23.787Z,63.92
2018-06-16T14:29:53.583Z,63.67
2018-06-16T14:32:23.004Z,63.46
2018-06-16T14:34:52.604Z,64.07
2018-06-16T14:37:22.154Z,64.06
2018-06-16T14:39:51.767Z,63.32
2018-06-16T14:42:21.311Z,63.39
2018-06-16T14:44:50.796Z,63.53
2018-06-16T14:47:20.294Z,63.01
2018-06-16T14:49:49.837Z,63.40
2018-06-16T14:52:19.444Z,63.03
2018-06-16T14:54:48.950Z,63.52
2018-06-16T14:57:18.520Z,63.91
2018-06-16T14:59:48.034Z,63.83
2018-06-16T15:02:17.615Z,63.97
2018-06-16T15:04:47.279Z,63.82
2018-06-16T15:07:17.092Z,64.31
2018-06-16T15:09:46.614Z,64.22
2018-06-16T15:12:16.122Z,64.15
2018-06-16T15:14:45.677Z,64.22
2018-06-16T15:17:15.125Z,63.94
2018-06-16T15:19:44.810Z,64.08
2018-06-16T15:22:15.229Z,63.94
2018-06-16T15:24:44.759Z,64.47
2018-06-16T15:27:14.278Z,64.21
2018-06-16T15:29:43.756Z,64.42
2018-06-16T15:32:13.249Z,64.25
2018-06-16T15:34:43.412Z,64.07
2018-06-16T15:37:13.000Z,64.41
2018-06-16T15:39:42.573Z,64.34
2018-06-16T15:42:12.078Z,64.59
2018-06-16T15:44:41.956Z,64.20
2018-06-16T15:47:12.587Z,64.32
2018-06-16T15:49:42.032Z,64.54
2018-06-16T15:52:11.781Z,64.77
2018-06-16T15:54:41.707Z,64.88
2018-06-16T15:57:11.341Z,64.59
2018-06-16T15:59:43.340Z,64.53
2018-06-16T16:02:13.996Z,64.30
2018-06-16T16:04:44.983Z,64.44
2018-06-16T16:07:14.675Z,64.62
2018-06-16T16:09:44.353Z,64.16
2018-06-16T16:12:15.416Z,64.53
2018-06-16T16:14:45.021Z,64.53
2018-06-16T16:17:16.071Z,63.45
2018-06-16T16:19:46.894Z,63.90
2018-06-16T16:22:16.688Z,63.88
2018-06-16T16:24:47.935Z,63.83
2018-06-16T16:27:17.745Z,64.15
2018-06-16T16:29:48.509Z,63.98
2018-06-16T16:32:27.338Z,64.30
2018-06-16T16:34:56.912Z,64.77
2018-06-16T16:37:26.431Z,64.60
2018-06-16T16:39:56.328Z,64.68
2018-06-16T16:42:25.952Z,64.49
2018-06-16T16:44:55.886Z,65.00
2018-06-16T16:47:25.471Z,64.60
2018-06-16T16:49:54.848Z,64.48
2018-06-16T16:52:24.240Z,64.83
2018-06-16T16:54:54.195Z,64.81
2018-06-16T16:57:24.923Z,64.83
2018-06-16T16:59:54.652Z,64.86
2018-06-16T17:02:24.963Z,64.72
2018-06-16T17:04:54.920Z,64.57
2018-06-16T17:07:24.599Z,64.50
2018-06-16T17:09:54.869Z,64.55
2018-06-16T17:12:24.588Z,64.62
2018-06-16T17:14:54.374Z,64.95
2018-06-16T17:17:23.767Z,65.20
2018-06-16T17:19:54.073Z,65.04
2018-06-16T17:22:23.567Z,64.71
2018-06-16T17:24:54.040Z,64.93
2018-06-16T17:27:23.609Z,64.89
2018-06-16T17:29:53.381Z,64.58
2018-06-16T17:32:22.939Z,64.50
2018-06-16T17:34:52.443Z,64.87
2018-06-16T17:37:24.000Z,64.68
2018-06-16T17:39:58.016Z,64.71
2018-06-16T17:42:27.569Z,64.69
2018-06-16T17:44:58.107Z,64.57
2018-06-16T17:49:52.636Z,64.46
2018-06-16T17:52:22.184Z,64.40
2018-06-16T17:54:52.339Z,64.78
2018-06-16T17:57:22.044Z,64.67
2018-06-16T17:59:53.843Z,64.66
2018-06-16T18:02:27.459Z,64.83
2018-06-16T18:04:57.164Z,64.52
2018-06-16T18:07:26.915Z,64.71
2018-06-16T18:09:56.608Z,64.80
2018-06-16T18:12:26.400Z,64.85
2018-06-16T18:14:56.149Z,64.75
2018-06-16T18:17:25.582Z,64.94
2018-06-16T18:19:55.034Z,64.76
2018-06-16T18:22:25.988Z,64.87
2018-06-16T18:24:55.696Z,65.06
2018-06-16T18:27:25.295Z,65.03
2018-06-16T18:29:55.068Z,65.23
2018-06-16T18:32:25.247Z,64.94
2018-06-16T18:34:54.788Z,65.50
2018-06-16T18:37:24.335Z,65.43
2018-06-16T18:39:54.322Z,65.74
2018-06-16T18:42:23.685Z,65.79
2018-06-16T18:44:53.155Z,65.87
2018-06-16T18:47:22.636Z,65.57
2018-06-16T18:49:52.293Z,65.88
2018-06-16T18:52:21.668Z,65.58
2018-06-16T18:54:51.965Z,65.83
2018-06-16T18:57:21.865Z,66.13
2018-06-16T18:59:51.213Z,65.36
2018-06-16T19:02:21.499Z,65.78
2018-06-16T19:04:51.692Z,65.49
2018-06-16T19:07:21.443Z,65.88
2018-06-16T19:09:51.059Z,65.68
2018-06-16T19:12:20.856Z,65.62
2018-06-16T19:14:50.814Z,65.81
2018-06-16T19:17:21.099Z,65.93
2018-06-16T19:19:51.466Z,66.08
2018-06-16T19:22:21.076Z,66.30
2018-06-16T19:24:50.544Z,66.37
2018-06-16T19:27:20.902Z,66.19
2018-06-16T19:29:51.597Z,66.68
2018-06-16T19:32:21.840Z,66.37
2018-06-16T19:34:51.532Z,66.28
2018-06-16T19:37:21.068Z,66.49
2018-06-16T19:39:50.707Z,66.47
2018-06-16T19:42:20.194Z,66.68
2018-06-16T19:44:49.781Z,66.55
2018-06-16T19:47:19.239Z,66.84
2018-06-16T19:51:02.792Z,66.96
2018-06-16T19:53:32.898Z,66.67
2018-06-16T19:56:02.302Z,66.76
2018-06-16T19:58:32.471Z,67.08
2018-06-16T20:01:02.029Z,67.33
2018-06-16T20:03:45.266Z,67.22
2018-06-16T20:06:15.149Z,66.98
2018-06-16T20:08:44.892Z,67.28
2018-06-16T20:11:14.396Z,67.19
2018-06-16T20:13:44.427Z,67.40
2018-06-16T20:16:18.608Z,67.61
2018-06-16T20:18:48.487Z,67.50
2018-06-16T20:21:18.785Z,67.35
2018-06-16T20:23:48.280Z,68.01
2018-06-16T20:26:18.382Z,67.93
2018-06-16T20:28:49.890Z,68.37
2018-06-16T20:31:20.062Z,68.68
2018-06-16T20:33:50.120Z,68.43
2018-06-16T20:36:19.674Z,68.89
2018-06-16T20:38:49.651Z,68.57
2018-06-16T20:41:19.584Z,69.07
2018-06-16T20:43:49.063Z,68.76
2018-06-16T20:46:18.520Z,68.75
2018-06-16T20:48:48.594Z,68.86
2018-06-16T20:51:18.486Z,68.98
2018-06-16T20:53:49.370Z,68.96
2018-06-16T20:56:19.408Z,68.76
2018-06-16T20:58:53.102Z,68.98
2018-06-16T21:01:22.826Z,69.00
2018-06-16T21:03:52.799Z,69.17
2018-06-16T21:06:22.298Z,68.88
2018-06-16T21:08:51.732Z,68.93
2018-06-16T21:11:21.327Z,69.39
2018-06-16T21:13:50.706Z,69.40
2018-06-16T21:16:20.037Z,69.44
2018-06-16T21:18:49.931Z,69.58
2018-06-16T21:21:19.528Z,69.57
2018-06-16T21:23:49.112Z,69.57
2018-06-16T21:26:18.632Z,69.37
2018-06-16T21:28:49.108Z,69.25
2018-06-16T21:31:19.032Z,69.32
2018-06-16T21:33:48.523Z,69.32
2018-06-16T21:36:18.096Z,69.56
2018-06-16T21:38:47.625Z,69.34
2018-06-16T21:41:17.081Z,69.58
2018-06-16T21:43:46.902Z,69.59
2018-06-16T21:46:16.879Z,69.54
2018-06-16T21:48:47.277Z,69.62
2018-06-16T21:51:20.687Z,69.42
2018-06-16T21:53:50.423Z,69.31
2018-06-16T21:56:20.319Z,69.67
2018-06-16T21:58:50.512Z,69.54
2018-06-16T22:01:20.155Z,69.35
2018-06-16T22:03:49.664Z,69.52
2018-06-16T22:06:19.518Z,69.79
2018-06-16T22:08:51.879Z,69.36
2018-06-16T22:11:21.323Z,69.77
2018-06-16T22:13:52.036Z,69.57
2018-06-16T22:16:21.551Z,69.43
2018-06-16T22:18:51.481Z,69.91
2018-06-16T22:21:21.168Z,69.72
2018-06-16T22:23:50.778Z,69.79
2018-06-16T22:26:20.402Z,69.65
2018-06-16T22:29:17.143Z,69.76
2018-06-16T22:31:47.196Z,69.57
2018-06-16T22:34:24.149Z,69.09
2018-06-16T22:36:55.728Z,69.04
2018-06-16T22:39:25.172Z,68.56
2018-06-16T22:41:55.383Z,68.58
2018-06-16T22:44:24.913Z,68.27
2018-06-16T22:46:54.422Z,68.76
2018-06-16T22:49:23.912Z,68.64
2018-06-16T22:51:53.332Z,68.52
2018-06-16T22:54:22.923Z,68.58
2018-06-16T22:56:52.323Z,68.75
2018-06-16T22:59:21.683Z,68.85
2018-06-16T23:01:51.185Z,68.69
2018-06-16T23:04:20.712Z,68.74
2018-06-16T23:06:50.544Z,68.86
2018-06-16T23:09:20.075Z,68.82
2018-06-16T23:11:49.629Z,68.67
2018-06-16T23:14:19.148Z,68.89
2018-06-16T23:16:48.612Z,69.08
2018-06-16T23:19:18.589Z,69.13
2018-06-16T23:21:48.197Z,68.89
2018-06-16T23:24:18.926Z,69.29
2018-06-16T23:26:49.235Z,68.91
2018-06-16T23:29:18.651Z,68.86
2018-06-16T23:31:48.130Z,69.25
2018-06-16T23:34:17.669Z,68.92
2018-06-16T23:36:47.708Z,69.20
2018-06-16T23:39:17.222Z,69.22
2018-06-16T23:41:46.758Z,69.22
2018-06-16T23:44:16.237Z,68.96
2018-06-16T23:46:45.622Z,69.18
2018-06-16T23:49:15.187Z,69.08
2018-06-16T23:51:44.710Z,69.13
2018-06-16T23:54:14.275Z,69.21
2018-06-16T23:56:43.798Z,69.30
2018-06-16T23:59:13.321Z,69.59
